Terminal Aerodrome Forecast
Issued by NWS Atlanta, GA

Home | Current Version | Previous Version | Text Only | Print | Product List | Glossary On
Versions: 1 2 3 4 5 6 7 8 9 10 11 12 13 14 15 16
000
FTUS42 KFFC 222300
TAFMCN
TAF
KMCN 222328Z 2300/2324 08003KT P6SM SCT008
      TEMPO 2300/2303 5SM BR BKN008
     FM231000 04005KT 4SM BR SCT008
     FM231300 04007KT P6SM SCT010
     FM231500 06009G16KT P6SM SCT020=

USA.gov is the U.S. government's official web portal to all federal, state and local government web resources and services.